createdAt,value
2023-03-06T00:02:00.797Z,-5.64
2023-03-06T00:05:04.808Z,-5.72
2023-03-06T00:08:09.993Z,-5.58
2023-03-06T00:11:16.354Z,-5.44
2023-03-06T00:14:20.509Z,-5.33
2023-03-06T00:17:23.684Z,-5.30
2023-03-06T00:20:27.918Z,-5.16
2023-03-06T00:23:30.921Z,-5.15
2023-03-06T00:26:37.024Z,-5.12
2023-03-06T00:29:40.714Z,-5.18
2023-03-06T00:32:44.539Z,-5.11
2023-03-06T00:35:48.292Z,-4.97
2023-03-06T00:38:52.087Z,-4.82
2023-03-06T00:41:56.098Z,-4.71
2023-03-06T00:45:01.544Z,-4.60
2023-03-06T00:48:05.687Z,-4.45
2023-03-06T00:51:09.145Z,-4.26
2023-03-06T00:54:12.742Z,-4.03
2023-03-06T00:57:17.177Z,-3.94
2023-03-06T01:00:20.593Z,-3.65
2023-03-06T01:03:25.988Z,-3.36
2023-03-06T01:06:29.317Z,-2.95
2023-03-06T01:09:33.545Z,-2.85
2023-03-06T01:12:36.481Z,-2.39
2023-03-06T01:15:40.748Z,-1.74
2023-03-06T01:18:43.902Z,-1.19
2023-03-06T01:21:47.520Z,-0.59
2023-03-06T01:24:50.575Z,-0.11
2023-03-06T01:27:54.166Z,-0.07
2023-03-06T01:30:58.274Z,-0.21
2023-03-06T01:34:01.983Z,-0.37
2023-03-06T01:37:05.178Z,-0.03
2023-03-06T01:40:09.901Z,-0.30
2023-03-06T01:43:34.548Z,0.25
2023-03-06T01:46:44.804Z,0.55
2023-03-06T01:49:48.492Z,-0.38
2023-03-06T01:52:57.212Z,0.17
2023-03-06T01:56:00.992Z,0.08
2023-03-06T01:59:05.077Z,0.44
2023-03-06T02:02:11.359Z,0.52
2023-03-06T02:05:15.789Z,1.21
2023-03-06T02:08:20.942Z,1.10
2023-03-06T02:11:26.116Z,1.91
2023-03-06T02:14:30.207Z,3.01
2023-03-06T02:17:36.636Z,3.41
2023-03-06T02:20:51.621Z,2.59
2023-03-06T02:24:14.785Z,2.72
2023-03-06T02:27:18.423Z,3.06
2023-03-06T02:30:23.557Z,1.82
2023-03-06T02:33:29.715Z,2.11
2023-03-06T02:36:37.660Z,2.86
2023-03-06T02:39:49.065Z,2.42
2023-03-06T02:42:58.442Z,2.51
2023-03-06T02:46:02.146Z,2.45
2023-03-06T02:49:05.546Z,2.81
2023-03-06T02:52:08.938Z,3.99
2023-03-06T02:55:15.717Z,4.92
2023-03-06T02:58:22.011Z,4.93
2023-03-06T03:01:25.471Z,5.59
2023-03-06T03:04:29.412Z,6.38
2023-03-06T03:07:34.132Z,7.24
2023-03-06T03:10:37.889Z,7.38
2023-03-06T03:13:42.693Z,8.09
2023-03-06T03:16:50.466Z,8.98
2023-03-06T03:19:54.730Z,9.07
2023-03-06T03:22:58.716Z,8.28
2023-03-06T03:26:11.670Z,8.20
2023-03-06T03:29:18.685Z,9.25
2023-03-06T03:32:22.220Z,8.90
2023-03-06T03:35:26.287Z,9.30
2023-03-06T03:38:30.772Z,9.28
2023-03-06T03:41:34.611Z,10.06
2023-03-06T03:44:42.020Z,10.36
2023-03-06T03:47:46.154Z,9.20
2023-03-06T03:50:50.266Z,10.96
2023-03-06T03:53:57.353Z,11.22
2023-03-06T03:57:04.698Z,11.97
2023-03-06T04:00:16.684Z,12.82
2023-03-06T04:03:35.930Z,13.23
2023-03-06T04:06:41.901Z,13.42
2023-03-06T04:09:45.940Z,14.19
2023-03-06T04:12:49.221Z,13.46
2023-03-06T04:15:56.799Z,13.13
2023-03-06T04:19:00.800Z,10.99
2023-03-06T04:22:05.103Z,11.55
2023-03-06T04:25:11.468Z,11.86
2023-03-06T04:28:16.051Z,11.66
2023-03-06T04:31:20.738Z,11.55
2023-03-06T04:34:24.055Z,11.07
2023-03-06T04:37:28.168Z,9.94
2023-03-06T04:40:36.347Z,8.33
2023-03-06T04:43:40.134Z,9.35
2023-03-06T04:46:43.450Z,7.71
2023-03-06T04:49:47.435Z,8.11
2023-03-06T04:52:50.936Z,9.05
2023-03-06T04:55:55.157Z,9.46
2023-03-06T04:58:59.541Z,10.37
2023-03-06T05:02:02.512Z,8.98
2023-03-06T05:05:06.529Z,8.33
2023-03-06T05:08:15.797Z,7.31
2023-03-06T05:11:20.011Z,6.42
2023-03-06T05:14:24.049Z,5.32
2023-03-06T05:17:27.804Z,4.85
2023-03-06T05:20:31.571Z,4.47
2023-03-06T05:23:37.408Z,4.54
2023-03-06T05:26:40.761Z,4.76
2023-03-06T05:29:44.194Z,5.01
2023-03-06T05:32:47.916Z,4.56
2023-03-06T05:35:51.231Z,5.00
2023-03-06T05:38:54.749Z,5.27
2023-03-06T05:41:58.942Z,5.35
2023-03-06T05:45:04.515Z,5.11
2023-03-06T05:48:08.713Z,5.27
2023-03-06T05:51:12.617Z,4.26
2023-03-06T05:54:16.696Z,3.95
2023-03-06T05:57:22.106Z,4.36
2023-03-06T06:00:26.370Z,4.60
2023-03-06T06:03:30.106Z,4.25
2023-03-06T06:06:33.422Z,3.99
2023-03-06T06:09:36.620Z,4.16
2023-03-06T06:12:40.831Z,4.29
2023-03-06T06:15:44.644Z,4.58
2023-03-06T06:18:48.374Z,4.34
2023-03-06T06:21:54.500Z,3.71
2023-03-06T06:24:58.614Z,3.85
2023-03-06T06:28:02.413Z,4.00
2023-03-06T06:31:11.819Z,3.42
2023-03-06T06:34:15.760Z,3.30
2023-03-06T06:37:19.842Z,3.34
2023-03-06T06:40:24.834Z,3.45
2023-03-06T06:43:29.278Z,3.35
2023-03-06T06:47:20.391Z,2.92
2023-03-06T06:49:58.164Z,2.97
2023-03-06T06:53:01.301Z,3.20
2023-03-06T06:56:05.358Z,3.13
2023-03-06T06:59:16.539Z,2.90
2023-03-06T07:02:21.494Z,2.84
2023-03-06T07:05:25.211Z,2.89
2023-03-06T07:08:29.837Z,2.87
2023-03-06T07:11:33.162Z,2.90
2023-03-06T07:14:37.628Z,2.62
2023-03-06T07:17:41.500Z,2.32
2023-03-06T07:20:44.871Z,2.49
2023-03-06T07:23:48.140Z,2.69
2023-03-06T07:26:53.221Z,2.58
2023-03-06T07:29:56.945Z,2.37
2023-03-06T07:33:00.823Z,2.38
2023-03-06T07:36:04.152Z,2.57
2023-03-06T07:39:08.933Z,2.67
2023-03-06T07:42:14.824Z,2.58
2023-03-06T07:45:29.057Z,2.67
2023-03-06T07:48:32.774Z,2.59
2023-03-06T07:51:36.840Z,2.47
2023-03-06T07:54:40.460Z,2.33
2023-03-06T07:57:43.929Z,2.38
2023-03-06T08:00:47.078Z,2.47
2023-03-06T08:03:51.876Z,2.87
2023-03-06T08:06:58.184Z,3.00
2023-03-06T08:10:02.053Z,3.07
2023-03-06T08:13:05.670Z,3.04
2023-03-06T08:16:11.143Z,3.12
2023-03-06T08:19:14.919Z,3.11
2023-03-06T08:22:19.027Z,2.88
2023-03-06T08:25:22.378Z,2.80
2023-03-06T08:28:27.379Z,2.94
2023-03-06T08:31:40.698Z,3.01
2023-03-06T08:34:46.376Z,3.03
2023-03-06T08:37:50.122Z,3.03
2023-03-06T08:40:53.365Z,3.15
2023-03-06T08:43:56.379Z,3.22
2023-03-06T08:47:00.330Z,3.23
2023-03-06T08:50:03.521Z,2.98
2023-03-06T08:53:07.028Z,2.96
2023-03-06T08:56:34.638Z,3.03
2023-03-06T08:59:38.164Z,2.82
2023-03-06T09:02:42.020Z,2.69
2023-03-06T09:05:46.082Z,2.63
2023-03-06T09:08:51.208Z,2.52
2023-03-06T09:11:55.567Z,2.45
2023-03-06T09:14:59.416Z,2.35
2023-03-06T09:18:03.666Z,2.19
2023-03-06T09:21:09.304Z,2.12
2023-03-06T09:24:13.332Z,2.06
2023-03-06T09:27:17.217Z,2.02
2023-03-06T09:30:21.292Z,1.98
2023-03-06T09:33:25.125Z,2.00
2023-03-06T09:36:28.518Z,1.97
2023-03-06T09:39:31.732Z,1.96
2023-03-06T09:42:36.109Z,1.95
2023-03-06T09:45:40.072Z,1.84
2023-03-06T09:48:57.882Z,1.81
2023-03-06T09:52:24.846Z,1.81
2023-03-06T09:55:31.980Z,1.78
2023-03-06T09:58:42.304Z,1.77
2023-03-06T10:02:02.577Z,1.65
2023-03-06T10:05:11.247Z,1.67
2023-03-06T10:08:44.076Z,1.69
2023-03-06T10:11:57.775Z,1.64
2023-03-06T10:15:09.835Z,1.66
2023-03-06T10:18:14.330Z,1.62
2023-03-06T10:21:33.208Z,1.64
2023-03-06T10:24:56.122Z,1.62
2023-03-06T10:28:12.422Z,1.60
2023-03-06T10:31:26.139Z,1.59
2023-03-06T10:34:33.674Z,1.49
2023-03-06T10:37:37.315Z,1.50
2023-03-06T10:40:57.981Z,1.53
2023-03-06T10:44:02.383Z,1.49
2023-03-06T10:47:31.125Z,1.51
2023-03-06T10:50:35.082Z,1.53
2023-03-06T10:53:59.718Z,1.53
2023-03-06T10:57:26.634Z,1.52
2023-03-06T11:00:39.529Z,1.41
2023-03-06T11:03:42.687Z,1.35
2023-03-06T11:06:46.883Z,1.40
2023-03-06T11:09:59.134Z,1.42
2023-03-06T11:13:23.487Z,1.38
2023-03-06T11:16:31.370Z,1.40
2023-03-06T11:19:35.633Z,1.43
2023-03-06T11:22:41.358Z,1.42
2023-03-06T11:25:51.294Z,1.42
2023-03-06T11:29:00.936Z,1.45
2023-03-06T11:32:12.784Z,1.43
2023-03-06T11:36:01.387Z,1.44
2023-03-06T11:39:15.531Z,1.39
2023-03-06T11:42:35.346Z,1.43
2023-03-06T11:45:48.832Z,1.44
2023-03-06T11:49:06.164Z,1.50
2023-03-06T11:52:19.481Z,1.47
2023-03-06T11:55:49.929Z,1.45
2023-03-06T11:59:15.264Z,1.42
2023-03-06T12:02:48.553Z,1.41
2023-03-06T12:06:04.778Z,1.33
2023-03-06T12:09:13.616Z,1.03
2023-03-06T12:12:42.097Z,1.34
2023-03-06T12:15:48.710Z,1.25
2023-03-06T12:19:23.553Z,1.24
2023-03-06T12:23:02.448Z,1.22
2023-03-06T12:26:20.087Z,1.10
2023-03-06T12:29:50.952Z,0.99
2023-03-06T12:33:03.388Z,1.02
2023-03-06T12:36:22.132Z,1.00
2023-03-06T12:40:11.824Z,0.95
2023-03-06T12:43:33.933Z,0.90
2023-03-06T12:46:47.785Z,0.97
2023-03-06T12:50:04.673Z,0.96
2023-03-06T12:53:16.395Z,0.99
2023-03-06T12:56:22.423Z,1.02
2023-03-06T12:59:45.105Z,1.05
2023-03-06T13:03:06.066Z,1.02
2023-03-06T13:06:44.944Z,1.02
2023-03-06T13:09:57.273Z,0.96
2023-03-06T13:13:22.457Z,0.84
2023-03-06T13:16:34.867Z,0.86
2023-03-06T13:19:38.696Z,0.81
2023-03-06T13:22:44.521Z,0.85
2023-03-06T13:25:50.317Z,0.94
2023-03-06T13:28:56.030Z,0.85
2023-03-06T13:32:02.919Z,0.94
2023-03-06T13:35:34.514Z,0.91
2023-03-06T13:38:54.899Z,0.90
2023-03-06T13:42:00.342Z,0.83
2023-03-06T13:45:16.535Z,0.84
2023-03-06T13:48:44.248Z,0.79
2023-03-06T13:51:54.568Z,0.79
2023-03-06T13:55:23.461Z,0.86
2023-03-06T13:58:56.899Z,0.85
2023-03-06T14:02:41.844Z,0.77
2023-03-06T14:05:51.124Z,0.64
2023-03-06T14:08:55.088Z,0.54
2023-03-06T14:12:07.415Z,0.48
2023-03-06T14:15:37.972Z,0.42
2023-03-06T14:18:47.019Z,0.41
2023-03-06T14:21:58.185Z,0.35
2023-03-06T14:25:06.291Z,0.45
2023-03-06T14:28:31.967Z,0.48
2023-03-06T14:31:41.738Z,0.46
2023-03-06T14:34:47.705Z,0.50
2023-03-06T14:37:54.766Z,0.54
2023-03-06T14:40:58.949Z,0.57
2023-03-06T14:44:27.085Z,0.55
2023-03-06T14:47:36.462Z,0.59
2023-03-06T14:50:41.089Z,0.44
2023-03-06T14:53:49.070Z,0.44
2023-03-06T14:56:57.412Z,0.47
2023-03-06T15:00:01.353Z,0.46
2023-03-06T15:03:13.541Z,0.38
2023-03-06T15:06:23.586Z,0.31
2023-03-06T15:09:36.576Z,0.27
2023-03-06T15:12:40.096Z,0.29
2023-03-06T15:15:43.202Z,0.35
2023-03-06T15:19:05.151Z,0.38
2023-03-06T15:22:21.666Z,0.28
2023-03-06T15:25:34.048Z,0.22
2023-03-06T15:28:40.104Z,0.28
2023-03-06T15:31:46.594Z,0.27
2023-03-06T15:35:25.238Z,0.35
2023-03-06T15:38:34.939Z,0.34
2023-03-06T15:41:39.614Z,0.39
2023-03-06T15:44:43.630Z,0.38
2023-03-06T15:47:49.263Z,0.43
2023-03-06T15:50:53.474Z,0.42
2023-03-06T15:54:09.775Z,0.47
2023-03-06T15:57:27.029Z,0.46
2023-03-06T16:00:36.110Z,0.37
2023-03-06T16:03:39.387Z,0.31
2023-03-06T16:06:45.364Z,0.33
2023-03-06T16:09:49.820Z,0.28
2023-03-06T16:13:00.400Z,0.28
2023-03-06T16:16:04.114Z,0.26
2023-03-06T16:19:25.267Z,0.26
2023-03-06T16:22:33.501Z,0.22
2023-03-06T16:25:42.881Z,0.19
2023-03-06T16:28:47.621Z,-0.01
2023-03-06T16:31:51.101Z,-0.06
2023-03-06T16:34:54.312Z,-0.07
2023-03-06T16:37:59.367Z,0.02
2023-03-06T16:41:03.069Z,-0.09
2023-03-06T16:44:08.440Z,-0.27
2023-03-06T16:47:13.312Z,-0.27
2023-03-06T16:50:23.316Z,-0.15
2023-03-06T16:53:27.100Z,-0.18
2023-03-06T16:56:30.933Z,-0.12
2023-03-06T16:59:34.825Z,-0.15
2023-03-06T17:02:41.226Z,-0.18
2023-03-06T17:05:45.425Z,-0.20
2023-03-06T17:08:50.787Z,-0.23
2023-03-06T17:11:54.906Z,-0.28
2023-03-06T17:14:59.113Z,-0.30
2023-03-06T17:18:02.616Z,-0.29
2023-03-06T17:21:08.206Z,-0.35
2023-03-06T17:24:12.474Z,-0.35
2023-03-06T17:27:15.590Z,-0.38
2023-03-06T17:30:18.672Z,-0.46
2023-03-06T17:33:22.447Z,-0.51
2023-03-06T17:36:26.489Z,-0.55
2023-03-06T17:39:34.993Z,-0.59
2023-03-06T17:42:42.656Z,-0.63
2023-03-06T17:45:47.977Z,-0.64
2023-03-06T17:48:51.884Z,-0.68
2023-03-06T17:51:58.524Z,-0.73
2023-03-06T17:55:02.522Z,-0.73
2023-03-06T17:58:05.630Z,-0.79
2023-03-06T18:01:21.405Z,-0.79
2023-03-06T18:04:24.980Z,-0.88
2023-03-06T18:07:29.208Z,-0.88
2023-03-06T18:10:32.905Z,-0.90
2023-03-06T18:13:39.487Z,-0.99
2023-03-06T18:16:43.295Z,-1.06
2023-03-06T18:19:47.152Z,-1.17
2023-03-06T18:22:50.973Z,-1.23
2023-03-06T18:26:06.143Z,-1.29
2023-03-06T18:29:11.263Z,-1.36
2023-03-06T18:32:15.550Z,-1.42
2023-03-06T18:35:20.094Z,-1.42
2023-03-06T18:38:24.314Z,-1.49
2023-03-06T18:41:28.051Z,-1.47
2023-03-06T18:44:31.446Z,-1.49
2023-03-06T18:47:35.383Z,-1.47
2023-03-06T18:50:38.857Z,-1.54
2023-03-06T18:53:43.082Z,-1.55
2023-03-06T18:56:47.206Z,-1.52
2023-03-06T18:59:50.686Z,-1.50
2023-03-06T19:02:54.369Z,-1.48
2023-03-06T19:05:59.685Z,-1.54
2023-03-06T19:09:03.478Z,-1.55
2023-03-06T19:12:07.707Z,-1.52
2023-03-06T19:15:11.416Z,-1.54
2023-03-06T19:18:18.031Z,-1.57
2023-03-06T19:21:23.623Z,-1.64
2023-03-06T19:24:27.569Z,-1.67
2023-03-06T19:27:32.127Z,-1.73
2023-03-06T19:30:36.326Z,-1.77
2023-03-06T19:33:41.169Z,-1.82
2023-03-06T19:36:45.455Z,-1.80
2023-03-06T19:39:49.194Z,-1.79
2023-03-06T19:42:52.982Z,-1.81
2023-03-06T19:45:57.281Z,-1.87
2023-03-06T19:49:06.244Z,-1.77
2023-03-06T19:52:09.506Z,-1.80
2023-03-06T19:55:13.597Z,-1.79
2023-03-06T19:58:16.989Z,-1.78
2023-03-06T20:01:23.379Z,-1.71
2023-03-06T20:04:27.214Z,-1.70
2023-03-06T20:07:30.607Z,-1.83
2023-03-06T20:10:38.833Z,-1.78
2023-03-06T20:13:47.186Z,-1.69
2023-03-06T20:16:50.797Z,-1.71
2023-03-06T20:19:55.100Z,-1.73
2023-03-06T20:23:03.028Z,-1.76
2023-03-06T20:26:12.532Z,-1.81
2023-03-06T20:29:16.019Z,-1.87
2023-03-06T20:32:20.033Z,-1.92
2023-03-06T20:35:23.638Z,-1.97
2023-03-06T20:38:27.898Z,-2.08
2023-03-06T20:41:32.763Z,-2.18
2023-03-06T20:44:36.835Z,-2.30
2023-03-06T20:47:39.881Z,-2.32
2023-03-06T20:50:42.929Z,-2.27
2023-03-06T20:53:50.756Z,-2.31
2023-03-06T20:56:53.869Z,-2.37
2023-03-06T20:59:57.973Z,-2.36
2023-03-06T21:03:01.009Z,-2.28
2023-03-06T21:06:04.341Z,-2.38
2023-03-06T21:09:07.999Z,-2.34
2023-03-06T21:12:11.556Z,-2.33
2023-03-06T21:15:15.308Z,-2.37
2023-03-06T21:18:19.429Z,-2.37
2023-03-06T21:21:25.938Z,-2.35
2023-03-06T21:24:29.206Z,-2.36
2023-03-06T21:27:32.952Z,-2.37
2023-03-06T21:30:35.956Z,-2.38
2023-03-06T21:33:40.402Z,-2.38
2023-03-06T21:36:44.102Z,-2.49
2023-03-06T21:39:47.897Z,-2.64
2023-03-06T21:42:51.546Z,-2.70
2023-03-06T21:45:58.742Z,-2.61
2023-03-06T21:49:04.671Z,-2.67
2023-03-06T21:52:08.673Z,-2.57
2023-03-06T21:55:12.446Z,-2.57
2023-03-06T21:58:16.200Z,-2.67
2023-03-06T22:01:23.085Z,-2.53
2023-03-06T22:04:26.570Z,-2.44
2023-03-06T22:07:29.783Z,-2.45
2023-03-06T22:10:33.848Z,-2.53
2023-03-06T22:13:38.809Z,-2.49
2023-03-06T22:16:42.434Z,-2.39
2023-03-06T22:19:46.198Z,-2.32
2023-03-06T22:22:50.344Z,-2.27
2023-03-06T22:25:53.824Z,-2.23
2023-03-06T22:28:58.609Z,-2.21
2023-03-06T22:32:02.032Z,-2.24
2023-03-06T22:35:06.449Z,-2.30
2023-03-06T22:38:10.209Z,-2.33
2023-03-06T22:41:17.315Z,-2.24
2023-03-06T22:44:20.615Z,-2.24
2023-03-06T22:47:23.638Z,-2.15
2023-03-06T22:50:26.844Z,-2.07
2023-03-06T22:53:31.108Z,-2.06
2023-03-06T22:56:34.992Z,-2.06
2023-03-06T22:59:39.178Z,-2.07
2023-03-06T23:02:42.938Z,-2.11
2023-03-06T23:05:46.046Z,-2.05
2023-03-06T23:08:55.063Z,-1.99
2023-03-06T23:11:58.636Z,-2.05
2023-03-06T23:15:20.403Z,-2.07
2023-03-06T23:18:42.659Z,-2.13
2023-03-06T23:22:04.963Z,-2.18
2023-03-06T23:25:27.758Z,-2.08
2023-03-06T23:28:31.264Z,-2.07
2023-03-06T23:31:34.259Z,-2.03
2023-03-06T23:34:37.246Z,-1.95
2023-03-06T23:37:40.610Z,-1.96
2023-03-06T23:40:44.469Z,-1.77
2023-03-06T23:43:49.665Z,-1.97
2023-03-06T23:46:53.677Z,-2.24
2023-03-06T23:49:57.643Z,-2.23
2023-03-06T23:53:00.710Z,-2.56
2023-03-06T23:56:07.260Z,-2.64
2023-03-06T23:59:11.881Z,-2.60
